Latest Conditions
At L.F.Wade Int. Airport
Recorded at 4:55 pm
Mostly Cloudy
Temp.: 
22°C/71°F
Humidity: 
77%
Wind: 
SE 13KT
or 15mph
UV Index: 
0
Island Observations
 
Observations
Monday, December 06, 2021

Observations are in local time and taken at least once an hour, or upon the start and end of specified events such as showers and thunderstorms.

Time Sky / Weather Wind Speed/Gusts Temp. R.H. Pressure
     knots (mph)  °C (°F)  %  mb / "Hg
 16:55 Mostly Cloudy  SE 13/0 (15/0) 22(71) 77 1026 / 30.29
 15:55 Mostly Cloudy  SE 14/0 (16/0) 22(72) 75 1026 / 30.29
 14:55 Mostly Cloudy  SE 13/0 (15/0) 22(72) 75 1026 / 30.29
 13:55 Mostly Cloudy  SE 12/0 (14/0) 22(72) 73 1027 / 30.32
 12:55 Mostly Cloudy  SE 12/0 (14/0) 23(73) 71 1027 / 30.33
 11:55 Mostly Cloudy  SE 11/0 (13/0) 23(74) 70 1028 / 30.37
 10:55 Mostly Cloudy  SE 10/0 (12/0) 23(74) 69 1029 / 30.39
 09:55 Mostly Cloudy  SE 10/0 (12/0) 23(73) 68 1030 / 30.41
 08:55 Mostly Cloudy  ESE 8/0 (9/0) 23(73) 68 1030 / 30.41
 07:55 Mostly Cloudy  ESE 9/0 (10/0) 22(71) 71 1029 / 30.38
 06:55 Mostly Cloudy  SE 10/0 (12/0) 21(70) 69 1029 / 30.38
 05:55 Mostly Cloudy  SE 9/0 (10/0) 21(70) 69 1028 / 30.37
 04:55 Mostly Cloudy  SE 9/0 (10/0) 21(71) 70 1029 / 30.38
 03:55 Mostly Cloudy  SE 9/0 (10/0) 21(70) 68 1029 / 30.38
 02:55 Mostly Cloudy  SE 12/0 (14/0) 21(70) 71 1028 / 30.37
 01:55 Mostly Cloudy  SE 10/0 (12/0) 21(70) 72 1028 / 30.37
 01:35 Mostly Cloudy  SE 11/0 (13/0) 21(70) 73 1028 / 30.36
 00:55 Few Clouds  SE 11/0 (13/0) 21(69) 74 1028 / 30.37
 23:55 Partly Cloudy  SE 11/0 (13/0) 21(70) 73 1028 / 30.37
 22:55 Partly Cloudy  ESE 10/0 (12/0) 21(70) 74 1029 / 30.38
 21:55 Mostly Cloudy  ESE 8/0 (9/0) 21(69) 74 1029 / 30.38
 20:55 Mostly Cloudy  ESE 6/0 (7/0) 21(69) 76 1029 / 30.38
 19:55 Mostly Cloudy  E 6/0 (7/0) 20(67) 81 1029 / 30.38
 18:55 Mostly Cloudy  E 6/0 (7/0) 20(68) 80 1028 / 30.37
 17:55 Mostly Cloudy  E 5/0 (6/0) 20(68) 81 1028 / 30.36
 16:55 Mostly Cloudy  E 6/0 (7/0) 21(70) 75 1028 / 30.35
 15:55 Mostly Cloudy  E 6/0 (7/0) 22(72) 72 1027 / 30.34
 14:55 Mostly Cloudy  ESE 6/0 (7/0) 23(73) 70 1027 / 30.33
 13:55 Mostly Cloudy  ENE 5/0 (6/0) 23(73) 70 1027 / 30.33
 12:55 Mostly Cloudy  ESE 3/0 (3/0) 22(72) 69 1027 / 30.34
 11:55 Partly Cloudy  SSE 5/0 (6/0) 23(73) 69 1028 / 30.35
 10:55 Partly Cloudy  SSE 4/0 (5/0) 23(73) 67 1028 / 30.37
 09:55 Partly Cloudy  SSE 3/0 (3/0) 23(73) 68 1028 / 30.37
 08:55 Partly Cloudy  Calm 22(72) 68 1028 / 30.36
 07:55 Partly Cloudy  NNE 2/0 (2/0) 18(65) 90 1027 / 30.34
 06:55 Partly Cloudy  SSW 5/0 (6/0) 18(65) 85 1027 / 30.33
 05:55 Few Clouds  S 4/0 (5/0) 20(68) 74 1026 / 30.31
 04:55 Few Clouds  S 6/0 (7/0) 20(68) 74 1026 / 30.29
 04:29 Partly Cloudy  S 5/0 (6/0) 20(69) 74 1026 / 30.29
 04:10 Mostly Cloudy  S 5/0 (6/0) 20(69) 73 1025 / 30.28
 03:55 Partly Cloudy  S 6/0 (7/0) 20(69) 73 1025 / 30.28
 02:55 Partly Cloudy  S 7/0 (8/0) 20(69) 72 1025 / 30.28
 01:55 Mostly Cloudy  S 7/0 (8/0) 21(69) 73 1025 / 30.27
 01:14 Partly Cloudy  S 8/0 (9/0) 21(69) 73 1025 / 30.27
 00:55 Mostly Cloudy  S 8/0 (9/0) 20(69) 73 1025 / 30.27
 23:55 Mostly Cloudy  SSE 7/0 (8/0) 20(69) 70 1025 / 30.28
 23:42 Mostly Cloudy  SE 7/0 (8/0) 20(69) 72 1026 / 30.29
 22:55 Mostly Cloudy  SE 7/0 (8/0) 20(68) 70 1026 / 30.29
 21:55 Mostly Cloudy  SE 9/0 (10/0) 20(68) 68 1025 / 30.28
 20:55 Partly Cloudy  ESE 7/0 (8/0) 20(67) 72 1025 / 30.27
 19:55 Mostly Cloudy  E 5/0 (6/0) 18(65) 75 1025 / 30.27
 18:55 Mostly Cloudy  E 4/0 (5/0) 18(65) 75 1025 / 30.26
 17:55 Mostly Cloudy  E 3/0 (3/0) 19(66) 71 1024 / 30.24
 16:55 Mostly Cloudy  ENE 5/0 (6/0) 20(67) 68 1024 / 30.23
 15:55 Mostly Cloudy  NE 6/0 (7/0) 21(69) 64 1023 / 30.22
 14:55 Partly Cloudy  NE 5/0 (6/0) 21(70) 60 1023 / 30.21
 13:55 Few Clouds  ENE 7/0 (8/0) 22(71) 61 1023 / 30.20
 12:55 Few Clouds  NE 6/0 (7/0) 22(72) 58 1023 / 30.21
 11:55 Few Clouds  NNE 8/0 (9/0) 22(71) 57 1023 / 30.22
 10:55 Few Clouds  N 8/0 (9/0) 21(71) 58 1024 / 30.23
 09:55 Partly Cloudy  NNE 7/0 (8/0) 21(70) 64 1023 / 30.22
 08:55 Partly Cloudy  N 8/0 (9/0) 21(70) 62 1023 / 30.20
 07:55 Mostly Cloudy  N 8/0 (9/0) 20(69) 66 1022 / 30.17
 06:55 Few Clouds  N 7/0 (8/0) 20(68) 64 1021 / 30.14
 05:55 Few Clouds  NNW 8/0 (9/0) 20(68) 67 1020 / 30.12
 04:55 Few Clouds  NNW 9/0 (10/0) 20(69) 67 1019 / 30.10
 03:55 Few Clouds  NNW 9/0 (10/0) 20(69) 70 1019 / 30.08
 02:55 Few Clouds  NNW 7/0 (8/0) 21(69) 74 1018 / 30.07
 01:55 Partly Cloudy  NNW 9/0 (10/0) 21(70) 77 1018 / 30.06
 00:55 Partly Cloudy  NNW 7/0 (8/0) 21(70) 81 1017 / 30.04
 00:39 Partly Cloudy  N 9/0 (10/0) 21(70) 80 1017 / 30.04
 00:06 Mostly Cloudy  NW 11/0 (13/0) 22(71) 77 1017 / 30.04
 23:55 Few Clouds  NW 11/0 (13/0) 22(71) 75 1017 / 30.04
 22:55 Few Clouds  NW 11/0 (13/0) 22(71) 79 1017 / 30.03
 21:55 Few Clouds  NW 11/0 (13/0) 22(71) 78 1016 / 30.01
 20:55 Few Clouds  NW 10/0 (12/0) 22(71) 82 1016 / 30.00
 19:55 Partly Cloudy  WNW 13/0 (15/0) 22(71) 77 1016 / 29.99
 18:55 Few Clouds  WNW 8/0 (9/0) 22(71) 80 1015 / 29.96
 17:55 Few Clouds  WNW 11/0 (13/0) 22(71) 78 1014 / 29.94
 16:55 Partly Cloudy  WNW 13/0 (15/0) 22(71) 77 1014 / 29.93
 15:55 Few Clouds  WNW 11/0 (13/0) 22(72) 75 1013 / 29.91
 14:55 Few Clouds  WNW 12/0 (14/0) 23(73) 73 1013 / 29.91
 13:55 Few Clouds  WNW 12/0 (14/0) 23(73) 74 1013 / 29.91
 12:55 Partly Cloudy  WNW 11/0 (13/0) 23(73) 77 1013 / 29.91
 11:55 Mostly Cloudy  WNW 10/0 (12/0) 23(73) 78 1014 / 29.93
 10:55 Mostly Cloudy  WNW 9/0 (10/0) 22(72) 81 1015 / 29.96
 09:55 Mostly Cloudy  WSW 3/0 (3/0) 22(71) 88 1015 / 29.96
 08:55 Mostly Cloudy  W 3/0 (3/0) 21(69) 92 1014 / 29.95
 07:55 Mostly Cloudy  WSW 2/0 (2/0) 20(69) 91 1014 / 29.93
 06:55 Overcast Showers S 4/0 (5/0) 20(69) 92 1014 / 29.93
 05:55 Mostly Cloudy Showers S 5/0 (6/0) 20(69) 89 1013 / 29.92
 04:55 Overcast  S 8/0 (9/0) 20(69) 89 1013 / 29.91
 04:29 Overcast Showers S 10/0 (12/0) 21(69) 82 1013 / 29.92
 03:55 Overcast Showers W 3/0 (3/0) 20(68) 84 1013 / 29.92
 02:55 Overcast Showers SSW 5/0 (6/0) 21(70) 86 1014 / 29.93
 01:55 Overcast  SSW 6/0 (7/0) 21(70) 85 1015 / 29.96
 00:55 Overcast  SW 8/0 (9/0) 21(70) 86 1015 / 29.96
 23:55 Overcast  SSW 12/0 (14/0) 21(69) 89 1015 / 29.98
 22:55 Overcast Showers S 12/0 (14/0) 22(72) 89 1016 / 30.00
 21:55 Overcast Showers S 12/0 (14/0) 22(71) 88 1017 / 30.04
Island AWOS